createdAt,value
2023-11-24T00:01:28.417Z,98819.16
2023-11-24T00:04:00.516Z,98826.16
2023-11-24T00:06:29.721Z,98820.90
2023-11-24T00:08:57.834Z,98826.99
2023-11-24T00:11:27.522Z,98844.01
2023-11-24T00:13:55.758Z,98830.91
2023-11-24T00:16:24.177Z,98824.69
2023-11-24T00:18:52.834Z,98822.34
2023-11-24T00:21:21.300Z,98814.40
2023-11-24T00:23:49.583Z,98807.16
2023-11-24T00:26:22.352Z,98812.90
2023-11-24T00:28:50.419Z,98806.80
2023-11-24T00:31:18.623Z,98802.80
2023-11-24T00:33:48.612Z,98795.86
2023-11-24T00:36:17.636Z,98789.38
2023-11-24T00:38:45.835Z,98786.73
2023-11-24T00:41:14.689Z,98780.93
2023-11-24T00:43:43.215Z,98783.28
2023-11-24T00:46:12.567Z,98789.41
2023-11-24T00:48:41.354Z,98783.50
2023-11-24T00:51:09.807Z,98784.68
2023-11-24T00:53:38.379Z,98794.54
2023-11-24T00:56:06.828Z,98797.52
2023-11-24T00:58:34.796Z,98791.86
2023-11-24T01:01:05.216Z,98790.80
2023-11-24T01:03:33.404Z,98807.31
2023-11-24T01:06:01.621Z,98804.31
2023-11-24T01:08:29.704Z,98813.31
2023-11-24T01:10:59.056Z,98807.27
2023-11-24T01:13:28.082Z,98784.27
2023-11-24T01:15:56.187Z,98754.27
2023-11-24T01:18:26.864Z,98766.17
2023-11-24T01:20:55.068Z,98760.21
2023-11-24T01:23:23.686Z,98768.36
2023-11-24T01:25:51.617Z,98762.00
2023-11-24T01:28:19.657Z,98748.09
2023-11-24T01:30:53.284Z,98752.76
2023-11-24T01:33:22.479Z,98767.65
2023-11-24T01:35:54.996Z,98778.69
2023-11-24T01:38:25.519Z,98771.60
2023-11-24T01:40:53.711Z,98767.23
2023-11-24T01:43:21.794Z,98774.54
2023-11-24T01:45:49.966Z,98780.17
2023-11-24T01:48:18.863Z,98772.20
2023-11-24T01:50:47.566Z,98758.48
2023-11-24T01:53:15.932Z,98763.90
2023-11-24T01:55:44.195Z,98769.91
2023-11-24T01:58:12.241Z,98777.56
2023-11-24T02:00:40.852Z,98778.75
2023-11-24T02:03:11.998Z,98770.36
2023-11-24T02:05:40.157Z,98764.67
2023-11-24T02:08:08.218Z,98755.51
2023-11-24T02:10:37.151Z,98751.23
2023-11-24T02:13:05.388Z,98752.36
2023-11-24T02:15:33.599Z,98750.41
2023-11-24T02:18:01.755Z,98761.11
2023-11-24T02:20:34.895Z,98759.86
2023-11-24T02:23:02.917Z,98751.62
2023-11-24T02:25:31.161Z,98754.14
2023-11-24T02:27:59.310Z,98750.13
2023-11-24T02:30:27.585Z,98756.00
2023-11-24T02:32:55.676Z,98749.35
2023-11-24T02:35:23.929Z,98732.55
2023-11-24T02:37:52.212Z,98730.65
2023-11-24T02:40:20.273Z,98724.33
2023-11-24T02:42:50.865Z,98737.73
2023-11-24T02:45:18.903Z,98735.07
2023-11-24T02:47:46.990Z,98736.20
2023-11-24T02:50:15.050Z,98737.69
2023-11-24T02:52:43.042Z,98746.40
2023-11-24T02:55:12.199Z,98741.90
2023-11-24T02:57:40.157Z,98746.40
2023-11-24T03:00:09.535Z,98754.14
2023-11-24T03:02:37.811Z,98765.23
2023-11-24T03:05:06.124Z,98786.90
2023-11-24T03:07:37.125Z,98796.09
2023-11-24T03:10:07.613Z,98795.61
2023-11-24T03:12:35.955Z,98784.23
2023-11-24T03:15:04.480Z,98789.71
2023-11-24T03:17:33.506Z,98788.08
2023-11-24T03:20:04.602Z,98786.92
2023-11-24T03:22:32.582Z,98782.45
2023-11-24T03:25:00.563Z,98777.70
2023-11-24T03:27:29.223Z,98767.20
2023-11-24T03:29:57.410Z,98763.00
2023-11-24T03:32:28.982Z,98764.27
2023-11-24T03:34:59.630Z,98759.61
2023-11-24T03:37:28.122Z,98756.20
2023-11-24T03:39:56.318Z,98756.61
2023-11-24T03:42:24.516Z,98760.73
2023-11-24T03:44:52.561Z,98767.38
2023-11-24T03:47:20.739Z,98758.83
2023-11-24T03:49:49.050Z,98757.26
2023-11-24T03:52:17.058Z,98757.40
2023-11-24T03:54:45.497Z,98752.20
2023-11-24T03:57:13.594Z,98756.11
2023-11-24T03:59:41.826Z,98750.73
2023-11-24T04:02:09.910Z,98755.52
2023-11-24T04:04:38.239Z,98756.80
2023-11-24T04:07:06.322Z,98757.94
2023-11-24T04:09:34.415Z,98758.65
2023-11-24T04:12:02.625Z,98753.61
2023-11-24T04:14:30.894Z,98750.48
2023-11-24T04:17:01.392Z,98746.81
2023-11-24T04:19:29.674Z,98745.33
2023-11-24T04:21:57.828Z,98749.57
2023-11-24T04:24:25.820Z,98745.19
2023-11-24T04:26:53.733Z,98743.70
2023-11-24T04:29:22.973Z,98740.23
2023-11-24T04:31:51.105Z,98741.73
2023-11-24T04:34:19.421Z,98741.23
2023-11-24T04:36:47.525Z,98737.30
2023-11-24T04:39:16.801Z,98741.42
2023-11-24T04:41:47.957Z,98744.59
2023-11-24T04:44:16.558Z,98741.95
2023-11-24T04:46:44.640Z,98740.21
2023-11-24T04:49:15.763Z,98743.99
2023-11-24T04:51:43.898Z,98744.77
2023-11-24T04:54:14.023Z,98751.56
2023-11-24T04:56:42.105Z,98751.98
2023-11-24T04:59:10.392Z,98753.05
2023-11-24T05:01:38.537Z,98756.48
2023-11-24T05:04:06.938Z,98755.84
2023-11-24T05:06:34.980Z,98754.31
2023-11-24T05:09:02.990Z,98747.10
2023-11-24T05:11:31.001Z,98748.92
2023-11-24T05:13:59.074Z,98747.18
2023-11-24T05:16:28.175Z,98750.14
2023-11-24T05:18:56.362Z,98753.05
2023-11-24T05:21:24.565Z,98755.30
2023-11-24T05:23:52.555Z,98756.58
2023-11-24T05:26:23.925Z,98753.98
2023-11-24T05:28:51.877Z,98756.44
2023-11-24T05:31:20.021Z,98751.01
2023-11-24T05:33:49.505Z,98752.38
2023-11-24T05:36:17.678Z,98751.54
2023-11-24T05:38:51.105Z,98760.03
2023-11-24T05:41:19.325Z,98753.06
2023-11-24T05:43:47.239Z,98756.88
2023-11-24T05:46:15.538Z,98762.77
2023-11-24T05:48:46.970Z,98767.69
2023-11-24T05:51:15.279Z,98765.96
2023-11-24T05:53:43.289Z,98762.92
2023-11-24T05:56:11.369Z,98772.71
2023-11-24T05:58:39.358Z,98769.91
2023-11-24T06:01:07.651Z,98763.00
2023-11-24T06:03:36.091Z,98766.15
2023-11-24T06:06:04.435Z,98773.48
2023-11-24T06:08:32.481Z,98770.05
2023-11-24T06:11:00.751Z,98768.70
2023-11-24T06:13:28.682Z,98766.09
2023-11-24T06:16:00.669Z,98769.04
2023-11-24T06:18:29.304Z,98763.27
2023-11-24T06:20:57.539Z,98766.43
2023-11-24T06:23:25.727Z,98767.39
2023-11-24T06:25:53.858Z,98768.88
2023-11-24T06:28:22.504Z,98770.21
2023-11-24T06:30:50.600Z,98773.60
2023-11-24T06:33:18.581Z,98770.40
2023-11-24T06:35:46.931Z,98767.75
2023-11-24T06:38:16.033Z,98774.59
2023-11-24T06:40:45.123Z,98776.82
2023-11-24T06:43:13.418Z,98783.96
2023-11-24T06:45:41.551Z,98779.02
2023-11-24T06:48:09.742Z,98776.25
2023-11-24T06:50:38.794Z,98778.45
2023-11-24T06:53:07.153Z,98776.03
2023-11-24T06:55:35.462Z,98771.59
2023-11-24T06:58:05.789Z,98773.10
2023-11-24T07:00:34.092Z,98768.58
2023-11-24T07:03:02.243Z,98769.77
2023-11-24T07:05:30.378Z,98772.45
2023-11-24T07:07:59.417Z,98768.96
2023-11-24T07:10:27.856Z,98767.95
2023-11-24T07:12:56.098Z,98771.13
2023-11-24T07:15:24.050Z,98775.02
2023-11-24T07:17:52.319Z,98778.80
2023-11-24T07:20:20.455Z,98779.45
2023-11-24T07:22:50.528Z,98778.52
2023-11-24T07:25:19.564Z,98779.52
2023-11-24T07:27:48.272Z,98774.64
2023-11-24T07:30:16.947Z,98775.68
2023-11-24T07:32:44.990Z,98776.16
2023-11-24T07:35:15.583Z,98775.75
2023-11-24T07:37:44.242Z,98763.04
2023-11-24T07:40:16.256Z,98761.68
2023-11-24T07:42:45.771Z,98759.94
2023-11-24T07:45:14.213Z,98762.60
2023-11-24T07:47:42.181Z,98760.69
2023-11-24T07:50:10.613Z,98756.59
2023-11-24T07:52:38.705Z,98751.20
2023-11-24T07:55:07.454Z,98758.49
2023-11-24T07:57:36.859Z,98773.95
2023-11-24T08:00:06.341Z,98777.28
2023-11-24T08:02:34.308Z,98765.80
2023-11-24T08:05:02.517Z,98770.05
2023-11-24T08:07:30.638Z,98746.20
2023-11-24T08:09:58.677Z,98720.80
2023-11-24T08:12:27.041Z,98713.09
2023-11-24T08:14:56.860Z,98731.14
2023-11-24T08:17:24.861Z,98735.23
2023-11-24T08:19:53.736Z,98739.16
2023-11-24T08:22:21.671Z,98741.58
2023-11-24T08:24:49.612Z,98737.44
2023-11-24T08:27:19.906Z,98740.41
2023-11-24T08:29:48.129Z,98729.01
2023-11-24T08:32:17.281Z,98726.45
2023-11-24T08:34:45.389Z,98716.75
2023-11-24T08:37:13.636Z,98704.42
2023-11-24T08:39:42.064Z,98701.53
2023-11-24T08:42:11.533Z,98702.03
2023-11-24T08:44:40.558Z,98696.98
2023-11-24T08:47:09.044Z,98697.76
2023-11-24T08:49:37.652Z,98704.70
2023-11-24T08:52:05.782Z,98705.25
2023-11-24T08:54:33.984Z,98703.14
2023-11-24T08:57:05.550Z,98701.92
2023-11-24T08:59:33.621Z,98695.52
2023-11-24T09:02:01.743Z,98697.05
2023-11-24T09:04:32.333Z,98696.50
2023-11-24T09:07:00.510Z,98694.80
2023-11-24T09:09:29.941Z,98697.25
2023-11-24T09:11:58.384Z,98694.45
2023-11-24T09:14:26.748Z,98690.96
2023-11-24T09:16:54.973Z,98691.22
2023-11-24T09:19:23.311Z,98685.13
2023-11-24T09:21:52.075Z,98684.65
2023-11-24T09:24:20.205Z,98686.59
2023-11-24T09:26:48.314Z,98692.77
2023-11-24T09:29:16.442Z,98691.52
2023-11-24T09:31:44.619Z,98696.48
2023-11-24T09:34:13.663Z,98696.82
2023-11-24T09:36:43.588Z,98700.81
2023-11-24T09:39:11.658Z,98697.14
2023-11-24T09:41:41.315Z,98695.63
2023-11-24T09:44:14.222Z,98698.75
2023-11-24T09:46:51.511Z,98685.64
2023-11-24T09:49:21.701Z,98684.16
2023-11-24T09:51:50.171Z,98682.34
2023-11-24T09:54:22.938Z,98682.46
2023-11-24T09:56:51.589Z,98672.77
2023-11-24T09:59:20.118Z,98667.44
2023-11-24T10:01:49.458Z,98658.26
2023-11-24T10:04:17.679Z,98655.96
2023-11-24T10:06:46.862Z,98654.88
2023-11-24T10:09:23.248Z,98656.98
2023-11-24T10:11:51.871Z,98651.23
2023-11-24T10:14:23.230Z,98649.67
2023-11-24T10:16:51.780Z,98653.70
2023-11-24T10:19:22.930Z,98652.66
2023-11-24T10:21:55.139Z,98644.44
2023-11-24T10:24:26.636Z,98644.50
2023-11-24T10:26:54.887Z,98650.84
2023-11-24T10:29:28.651Z,98643.52
2023-11-24T10:31:57.412Z,98646.20
2023-11-24T10:34:27.527Z,98638.17
2023-11-24T10:36:56.638Z,98631.71
2023-11-24T10:39:26.990Z,98626.67
2023-11-24T10:41:56.045Z,98627.58
2023-11-24T10:44:26.586Z,98620.04
2023-11-24T10:46:58.040Z,98616.40
2023-11-24T10:49:36.335Z,98613.93
2023-11-24T10:52:11.904Z,98610.42
2023-11-24T10:54:43.418Z,98607.20
2023-11-24T10:57:11.548Z,98606.28
2023-11-24T10:59:40.731Z,98605.77
2023-11-24T11:02:14.421Z,98602.14
2023-11-24T11:05:01.679Z,98598.23
2023-11-24T11:08:05.338Z,98587.02
2023-11-24T11:10:46.137Z,98581.08
2023-11-24T11:13:15.152Z,98586.48
2023-11-24T11:15:44.274Z,98579.53
2023-11-24T11:18:16.108Z,98576.54
2023-11-24T11:20:46.118Z,98571.45
2023-11-24T11:23:19.280Z,98571.15
2023-11-24T11:25:48.632Z,98571.27
2023-11-24T11:28:25.389Z,98573.80
2023-11-24T11:30:59.154Z,98573.20
2023-11-24T11:33:28.706Z,98574.10
2023-11-24T11:36:06.886Z,98577.17
2023-11-24T11:38:45.345Z,98587.55
2023-11-24T11:41:43.074Z,98589.20
2023-11-24T11:44:27.367Z,98590.61
2023-11-24T11:47:23.027Z,98570.88
2023-11-24T11:50:01.845Z,98569.84
2023-11-24T11:52:32.551Z,98567.06
2023-11-24T11:55:02.131Z,98566.65
2023-11-24T11:57:30.883Z,98564.22
2023-11-24T11:59:58.981Z,98562.23
2023-11-24T12:02:28.286Z,98558.71
2023-11-24T12:04:56.741Z,98560.44
2023-11-24T12:07:27.489Z,98564.66
2023-11-24T12:09:55.925Z,98567.19
2023-11-24T12:12:24.605Z,98571.02
2023-11-24T12:14:56.173Z,98567.88
2023-11-24T12:17:25.765Z,98566.72
2023-11-24T12:19:55.210Z,98571.39
2023-11-24T12:22:24.886Z,98566.42
2023-11-24T12:24:53.706Z,98563.09
2023-11-24T12:27:22.602Z,98554.00
2023-11-24T12:29:53.158Z,98545.22
2023-11-24T12:32:25.263Z,98547.02
2023-11-24T12:34:53.323Z,98551.02
2023-11-24T12:37:21.782Z,98557.66
2023-11-24T12:39:49.992Z,98560.34
2023-11-24T12:42:18.187Z,98564.27
2023-11-24T12:44:49.609Z,98562.70
2023-11-24T12:47:41.622Z,98563.35
2023-11-24T12:50:14.992Z,98565.38
2023-11-24T12:52:46.323Z,98563.35
2023-11-24T12:55:14.942Z,98556.63
2023-11-24T12:57:46.801Z,98551.38
2023-11-24T13:00:16.865Z,98550.79
2023-11-24T13:02:46.329Z,98555.02
2023-11-24T13:05:18.209Z,98556.94
2023-11-24T13:07:48.561Z,98561.65
2023-11-24T13:13:07.948Z,98556.56
2023-11-24T13:15:36.161Z,98550.39
2023-11-24T13:18:05.622Z,98549.56
2023-11-24T13:20:36.764Z,98552.15
2023-11-24T13:23:05.881Z,98548.11
2023-11-24T13:25:37.808Z,98552.56
2023-11-24T13:28:07.345Z,98547.98
2023-11-24T13:30:35.587Z,98546.23
2023-11-24T13:33:04.064Z,98548.25
2023-11-24T13:35:32.758Z,98544.36
2023-11-24T13:38:01.117Z,98537.19
2023-11-24T13:40:32.661Z,98531.83
2023-11-24T13:43:01.396Z,98530.88
2023-11-24T13:45:29.515Z,98529.45
2023-11-24T13:48:00.385Z,98531.17
2023-11-24T13:50:30.638Z,98525.88
2023-11-24T13:52:58.790Z,98517.52
2023-11-24T13:55:35.800Z,98517.91
2023-11-24T13:58:04.857Z,98519.48
2023-11-24T14:00:33.339Z,98517.23
2023-11-24T14:03:03.303Z,98519.09
2023-11-24T14:05:31.978Z,98522.96
2023-11-24T14:08:00.204Z,98526.70
2023-11-24T14:10:28.556Z,98529.23
2023-11-24T14:12:57.885Z,98524.83
2023-11-24T14:15:26.095Z,98518.98
2023-11-24T14:17:54.339Z,98518.59
2023-11-24T14:20:22.680Z,98511.30
2023-11-24T14:22:53.415Z,98511.39
2023-11-24T14:25:21.839Z,98511.86
2023-11-24T14:27:50.253Z,98508.11
2023-11-24T14:30:19.814Z,98507.29
2023-11-24T14:32:48.779Z,98506.11
2023-11-24T14:35:17.121Z,98504.13
2023-11-24T14:37:45.579Z,98492.94
2023-11-24T14:40:20.478Z,98498.77
2023-11-24T14:42:53.495Z,98492.19
2023-11-24T14:45:22.492Z,98496.20
2023-11-24T14:47:51.934Z,98503.77
2023-11-24T14:50:29.001Z,98503.61
2023-11-24T14:52:59.252Z,98503.85
2023-11-24T14:55:30.211Z,98494.84
2023-11-24T14:58:00.653Z,98491.71
2023-11-24T15:00:35.163Z,98492.60
2023-11-24T15:03:08.498Z,98488.27
2023-11-24T15:05:40.969Z,98488.94
2023-11-24T15:08:11.766Z,98488.16
2023-11-24T15:10:45.002Z,98488.96
2023-11-24T15:13:22.565Z,98490.75
2023-11-24T15:15:51.800Z,98487.51
2023-11-24T15:18:21.894Z,98491.37
2023-11-24T15:20:54.763Z,98486.16
2023-11-24T15:23:25.189Z,98484.05
2023-11-24T15:25:54.239Z,98483.04
2023-11-24T15:28:27.628Z,98477.41
2023-11-24T15:30:57.794Z,98470.55
2023-11-24T15:33:32.164Z,98467.59
2023-11-24T15:36:01.912Z,98467.63
2023-11-24T15:38:30.136Z,98462.30
2023-11-24T15:40:58.628Z,98454.30
2023-11-24T15:43:27.072Z,98454.33
2023-11-24T15:45:57.132Z,98454.15
2023-11-24T15:48:27.349Z,98454.50
2023-11-24T15:50:57.792Z,98447.50
2023-11-24T15:53:26.055Z,98446.71
2023-11-24T15:55:54.739Z,98445.99
2023-11-24T15:58:26.724Z,98439.33
2023-11-24T16:00:58.247Z,98436.73
2023-11-24T16:03:26.669Z,98436.52
2023-11-24T16:05:56.338Z,98436.05
2023-11-24T16:08:33.591Z,98439.17
2023-11-24T16:11:10.865Z,98438.77
2023-11-24T16:13:42.884Z,98441.04
2023-11-24T16:16:12.245Z,98440.30
2023-11-24T16:18:42.719Z,98440.44
2023-11-24T16:21:11.387Z,98442.15
2023-11-24T16:23:39.664Z,98442.09
2023-11-24T16:26:08.305Z,98440.24
2023-11-24T16:28:36.720Z,98442.95
2023-11-24T16:31:05.929Z,98443.17
2023-11-24T16:33:34.615Z,98446.69
2023-11-24T16:36:02.882Z,98446.09
2023-11-24T16:38:32.161Z,98444.90
2023-11-24T16:41:05.089Z,98446.09
2023-11-24T16:43:34.545Z,98442.11
2023-11-24T16:46:08.195Z,98444.55
2023-11-24T16:48:40.886Z,98439.77
2023-11-24T16:51:09.161Z,98435.20
2023-11-24T16:53:37.669Z,98434.46
2023-11-24T16:56:06.060Z,98427.17
2023-11-24T16:58:35.374Z,98427.74
2023-11-24T17:01:04.075Z,98426.74
2023-11-24T17:03:35.172Z,98431.85
2023-11-24T17:06:05.295Z,98427.63
2023-11-24T17:08:33.775Z,98430.21
2023-11-24T17:11:08.280Z,98435.77
2023-11-24T17:13:38.277Z,98437.48
2023-11-24T17:16:07.984Z,98439.92
2023-11-24T17:18:37.889Z,98434.38
2023-11-24T17:21:06.331Z,98437.52
2023-11-24T17:23:36.522Z,98439.83
2023-11-24T17:26:05.172Z,98443.20
2023-11-24T17:28:33.753Z,98446.35
2023-11-24T17:31:05.273Z,98445.66
2023-11-24T17:33:34.288Z,98444.20
2023-11-24T17:36:05.120Z,98439.73
2023-11-24T17:38:33.223Z,98433.85
2023-11-24T17:41:02.822Z,98432.08
2023-11-24T17:43:31.296Z,98428.25
2023-11-24T17:45:59.884Z,98428.92
2023-11-24T17:48:28.375Z,98419.91
2023-11-24T17:50:56.743Z,98419.40
2023-11-24T17:53:24.928Z,98417.63
2023-11-24T17:55:53.304Z,98412.88
2023-11-24T17:58:22.109Z,98414.27
2023-11-24T18:00:50.207Z,98414.73
2023-11-24T18:03:18.684Z,98415.64
2023-11-24T18:05:46.821Z,98418.20
2023-11-24T18:08:17.151Z,98402.60
2023-11-24T18:10:45.220Z,98409.56
2023-11-24T18:13:13.357Z,98404.18
2023-11-24T18:15:41.666Z,98402.97
2023-11-24T18:18:10.025Z,98402.50
2023-11-24T18:20:38.224Z,98406.52
2023-11-24T18:23:06.803Z,98403.61
2023-11-24T18:25:40.005Z,98408.64
2023-11-24T18:28:09.631Z,98408.62
2023-11-24T18:30:39.166Z,98411.20
2023-11-24T18:33:09.905Z,98410.90
2023-11-24T18:35:39.970Z,98407.45
2023-11-24T18:38:09.875Z,98406.05
2023-11-24T18:40:38.596Z,98404.79
2023-11-24T18:43:07.094Z,98404.48
2023-11-24T18:45:35.741Z,98403.09
2023-11-24T18:48:04.813Z,98401.16
2023-11-24T18:50:33.713Z,98400.36
2023-11-24T18:53:01.815Z,98395.23
2023-11-24T18:55:30.247Z,98401.42
2023-11-24T18:57:59.428Z,98398.94
2023-11-24T19:00:28.531Z,98398.46
2023-11-24T19:02:56.746Z,98394.55
2023-11-24T19:05:25.019Z,98394.41
2023-11-24T19:07:55.851Z,98395.89
2023-11-24T19:10:23.982Z,98399.76
2023-11-24T19:12:52.722Z,98398.21
2023-11-24T19:15:21.426Z,98392.89
2023-11-24T19:17:50.044Z,98392.57
2023-11-24T19:20:19.252Z,98399.84
2023-11-24T19:22:48.547Z,98400.39
2023-11-24T19:25:16.808Z,98397.96
2023-11-24T19:27:45.012Z,98398.02
2023-11-24T19:30:13.393Z,98398.21
2023-11-24T19:32:41.495Z,98400.09
2023-11-24T19:35:10.126Z,98404.93
2023-11-24T19:37:38.379Z,98401.39
2023-11-24T19:40:07.442Z,98400.02
2023-11-24T19:42:35.669Z,98396.04
2023-11-24T19:45:04.176Z,98389.32
2023-11-24T19:47:32.236Z,98393.48
2023-11-24T19:50:00.336Z,98393.60
2023-11-24T19:52:28.366Z,98398.19
2023-11-24T19:54:56.473Z,98392.11
2023-11-24T19:57:24.542Z,98392.86
2023-11-24T19:59:56.117Z,98394.48
2023-11-24T20:02:24.301Z,98393.98
2023-11-24T20:04:52.916Z,98394.76
2023-11-24T20:07:22.918Z,98392.02
2023-11-24T20:09:53.908Z,98391.05
2023-11-24T20:12:22.276Z,98396.56
2023-11-24T20:14:50.531Z,98393.23
2023-11-24T20:17:19.050Z,98395.31
2023-11-24T20:19:47.278Z,98393.17
2023-11-24T20:22:15.666Z,98390.11
2023-11-24T20:24:44.294Z,98393.97
2023-11-24T20:27:13.290Z,98395.39
2023-11-24T20:29:41.493Z,98394.44
2023-11-24T20:32:10.694Z,98400.80
2023-11-24T20:34:39.025Z,98401.36
2023-11-24T20:37:07.361Z,98397.76
2023-11-24T20:39:35.521Z,98399.03
2023-11-24T20:42:04.455Z,98399.17
2023-11-24T20:44:34.313Z,98397.04
2023-11-24T20:47:02.912Z,98389.97
2023-11-24T20:49:31.125Z,98386.52
2023-11-24T20:51:59.465Z,98383.31
2023-11-24T20:54:27.659Z,98381.02
2023-11-24T20:56:55.999Z,98374.85
2023-11-24T20:59:24.572Z,98365.31
2023-11-24T21:01:52.994Z,98364.27
2023-11-24T21:04:21.769Z,98362.05
2023-11-24T21:06:50.019Z,98361.60
2023-11-24T21:09:18.771Z,98359.14
2023-11-24T21:11:47.001Z,98365.39
2023-11-24T21:14:15.142Z,98361.56
2023-11-24T21:16:43.634Z,98360.64
2023-11-24T21:19:12.904Z,98361.39
2023-11-24T21:21:41.248Z,98365.45
2023-11-24T21:24:10.249Z,98368.29
2023-11-24T21:26:38.489Z,98368.27
2023-11-24T21:29:07.528Z,98364.55
2023-11-24T21:31:36.654Z,98364.37
2023-11-24T21:34:05.051Z,98365.56
2023-11-24T21:36:33.309Z,98364.34
2023-11-24T21:39:03.944Z,98366.92
2023-11-24T21:41:35.016Z,98359.18
2023-11-24T21:44:03.528Z,98362.20
2023-11-24T21:46:31.796Z,98361.94
2023-11-24T21:49:00.061Z,98357.80
2023-11-24T21:51:28.817Z,98353.41
2023-11-24T21:53:57.172Z,98359.11
2023-11-24T21:56:26.609Z,98362.42
2023-11-24T21:58:54.929Z,98363.96
2023-11-24T22:01:24.669Z,98362.23
2023-11-24T22:03:53.680Z,98357.98
2023-11-24T22:06:26.132Z,98358.67
2023-11-24T22:08:55.593Z,98365.75
2023-11-24T22:11:23.689Z,98366.87
2023-11-24T22:13:51.791Z,98367.27
2023-11-24T22:16:22.130Z,98368.18
2023-11-24T22:18:51.620Z,98371.63
2023-11-24T22:21:20.249Z,98370.35
2023-11-24T22:23:48.528Z,98367.79
2023-11-24T22:26:24.873Z,98368.36
2023-11-24T22:28:54.508Z,98369.54
2023-11-24T22:31:23.170Z,98366.02
2023-11-24T22:33:51.667Z,98368.88
2023-11-24T22:36:21.438Z,98367.34
2023-11-24T22:38:50.694Z,98361.88
2023-11-24T22:41:24.382Z,98361.05
2023-11-24T22:43:54.067Z,98356.95
2023-11-24T22:46:24.496Z,98355.67
2023-11-24T22:48:53.658Z,98353.98
2023-11-24T22:51:29.773Z,98354.08
2023-11-24T22:53:58.050Z,98361.54
2023-11-24T22:56:27.889Z,98362.65
2023-11-24T22:58:57.604Z,98359.02
2023-11-24T23:01:27.444Z,98358.48
2023-11-24T23:04:01.247Z,98355.37
2023-11-24T23:06:29.651Z,98357.80
2023-11-24T23:08:58.038Z,98361.96
2023-11-24T23:11:28.659Z,98359.17
2023-11-24T23:13:58.634Z,98361.48
2023-11-24T23:16:28.452Z,98359.11
2023-11-24T23:18:58.579Z,98358.93
2023-11-24T23:21:26.761Z,98358.95
2023-11-24T23:23:56.745Z,98360.48
2023-11-24T23:26:26.694Z,98361.08
2023-11-24T23:28:54.938Z,98361.45
2023-11-24T23:31:26.818Z,98359.66
2023-11-24T23:33:56.890Z,98360.77
2023-11-24T23:36:25.008Z,98360.14
2023-11-24T23:38:53.433Z,98361.50
2023-11-24T23:41:22.455Z,98360.25
2023-11-24T23:43:50.977Z,98356.89
2023-11-24T23:46:19.152Z,98358.55
2023-11-24T23:49:01.705Z,98355.77
2023-11-24T23:51:30.809Z,98356.24
2023-11-24T23:53:58.961Z,98358.48
2023-11-24T23:56:27.286Z,98362.23
2023-11-24T23:58:55.630Z,98361.44
